createdAt,value
2023-01-13T00:00:15.618Z,0.38
2023-01-13T00:02:42.283Z,0.35
2023-01-13T00:05:09.821Z,0.17
2023-01-13T00:07:36.570Z,0.10
2023-01-13T00:10:03.392Z,0.28
2023-01-13T00:12:30.119Z,0.38
2023-01-13T00:14:57.025Z,0.20
2023-01-13T00:17:23.627Z,0.28
2023-01-13T00:19:50.222Z,0.40
2023-01-13T00:22:16.802Z,0.17
2023-01-13T00:24:43.375Z,0.25
2023-01-13T00:27:09.934Z,0.20
2023-01-13T00:29:36.459Z,0.13
2023-01-13T00:32:03.111Z,0.20
2023-01-13T00:34:29.636Z,0.30
2023-01-13T00:36:57.899Z,0.28
2023-01-13T00:39:24.505Z,0.20
2023-01-13T00:42:09.671Z,0.30
2023-01-13T00:44:36.230Z,0.20
2023-01-13T00:47:02.860Z,0.20
2023-01-13T00:49:29.383Z,0.25
2023-01-13T00:51:55.933Z,0.35
2023-01-13T00:54:22.504Z,0.13
2023-01-13T00:56:49.461Z,0.20
2023-01-13T00:59:16.047Z,0.10
2023-01-13T01:01:42.859Z,0.20
2023-01-13T01:04:09.619Z,0.10
2023-01-13T01:06:36.238Z,0.30
2023-01-13T01:09:04.039Z,0.10
2023-01-13T01:11:33.130Z,0.20
2023-01-13T01:14:02.704Z,0.05
2023-01-13T01:16:31.590Z,0.30
2023-01-13T01:18:58.442Z,0.10
2023-01-13T01:21:26.860Z,0.17
2023-01-13T01:23:53.878Z,0.20
2023-01-13T01:26:22.886Z,0.20
2023-01-13T01:28:50.087Z,0.20
2023-01-13T01:31:19.935Z,0.20
2023-01-13T01:33:47.709Z,0.10
2023-01-13T01:36:16.081Z,0.20
2023-01-13T01:38:43.447Z,0.10
2023-01-13T01:41:16.944Z,0.10
2023-01-13T01:44:00.311Z,0.20
2023-01-13T01:49:18.117Z,0.17
2023-01-13T01:51:56.767Z,0.10
2023-01-13T01:54:40.508Z,0.10
2023-01-13T01:57:11.315Z,0.10
2023-01-13T01:59:39.403Z,0.70
2023-01-13T02:02:06.732Z,0.20
2023-01-13T02:04:36.509Z,0.10
2023-01-13T02:07:03.729Z,0.13
2023-01-13T02:09:30.926Z,0.15
2023-01-13T02:12:16.145Z,0.10
2023-01-13T02:14:44.165Z,0.10
2023-01-13T02:17:35.075Z,0.03
2023-01-13T02:20:13.491Z,0.13
2023-01-13T02:23:01.813Z,0.30
2023-01-13T02:25:55.831Z,0.10
2023-01-13T02:29:23.588Z,0.30
2023-01-13T02:31:54.828Z,0.22
2023-01-13T02:34:25.942Z,0.35
2023-01-13T02:36:57.729Z,0.30
2023-01-13T02:39:42.116Z,0.13
2023-01-13T02:43:04.100Z,0.20
2023-01-13T02:45:37.764Z,0.10
2023-01-13T02:48:07.804Z,0.10
2023-01-13T02:51:05.023Z,0.10
2023-01-13T02:53:41.461Z,0.10
2023-01-13T02:56:10.192Z,0.15
2023-01-13T02:58:39.587Z,0.00
2023-01-13T03:01:06.238Z,0.10
2023-01-13T03:03:32.917Z,0.10
2023-01-13T03:06:16.131Z,0.00
2023-01-13T03:08:54.885Z,0.05
2023-01-13T03:11:22.157Z,0.00
2023-01-13T03:13:54.777Z,0.10
2023-01-13T03:16:33.706Z,0.03
2023-01-13T03:19:24.958Z,0.10
2023-01-13T03:21:54.620Z,0.13
2023-01-13T03:24:30.384Z,0.13
2023-01-13T03:27:05.764Z,0.10
2023-01-13T03:29:46.187Z,0.00
2023-01-13T03:32:20.233Z,0.10
2023-01-13T03:34:51.612Z,0.10
2023-01-13T03:37:25.323Z,0.10
2023-01-13T03:39:57.540Z,0.00
2023-01-13T03:42:26.361Z,0.10
2023-01-13T03:45:00.521Z,0.10
2023-01-13T03:47:53.391Z,0.00
2023-01-13T03:50:37.296Z,0.20
2023-01-13T03:53:10.789Z,0.10
2023-01-13T03:55:47.146Z,0.10
2023-01-13T03:58:26.024Z,0.20
2023-01-13T04:01:14.759Z,0.10
2023-01-13T04:04:01.039Z,0.10
2023-01-13T04:06:48.867Z,0.10
2023-01-13T04:09:19.572Z,0.10
2023-01-13T04:11:59.498Z,0.28
2023-01-13T04:14:27.787Z,0.10
2023-01-13T04:16:55.375Z,0.20
2023-01-13T04:19:22.048Z,0.10
2023-01-13T04:21:48.615Z,0.17
2023-01-13T04:24:15.189Z,0.25
2023-01-13T04:26:41.772Z,0.20
2023-01-13T04:29:08.379Z,0.17
2023-01-13T04:31:35.047Z,0.20
2023-01-13T04:34:01.759Z,0.20
2023-01-13T04:36:28.354Z,0.10
2023-01-13T04:38:55.219Z,0.13
2023-01-13T04:41:22.041Z,0.10
2023-01-13T04:43:48.620Z,0.10
2023-01-13T04:46:15.268Z,0.20
2023-01-13T04:48:41.841Z,0.20
2023-01-13T04:51:08.485Z,0.20
2023-01-13T04:53:35.086Z,0.20
2023-01-13T04:56:01.712Z,0.15
2023-01-13T04:58:28.266Z,0.30
2023-01-13T05:00:55.460Z,0.20
2023-01-13T05:03:24.219Z,0.15
2023-01-13T05:05:52.184Z,0.10
2023-01-13T05:08:18.765Z,0.10
2023-01-13T05:10:45.368Z,0.15
2023-01-13T05:13:30.485Z,0.20
2023-01-13T05:16:15.899Z,0.35
2023-01-13T05:18:42.565Z,0.43
2023-01-13T05:21:29.103Z,0.20
2023-01-13T05:24:14.062Z,0.10
2023-01-13T05:26:40.621Z,0.10
2023-01-13T05:29:07.193Z,0.10
2023-01-13T05:31:33.803Z,0.10
2023-01-13T05:34:00.347Z,0.03
2023-01-13T05:36:26.889Z,0.30
2023-01-13T05:38:53.573Z,0.22
2023-01-13T05:41:38.653Z,0.20
2023-01-13T05:44:05.293Z,0.20
2023-01-13T05:46:32.051Z,0.10
2023-01-13T05:49:00.776Z,0.13
2023-01-13T05:51:27.365Z,0.22
2023-01-13T05:53:53.922Z,0.20
2023-01-13T05:56:20.475Z,0.15
2023-01-13T05:58:47.038Z,0.10
2023-01-13T06:01:13.724Z,0.17
2023-01-13T06:03:40.294Z,0.05
2023-01-13T06:06:08.909Z,0.40
2023-01-13T06:08:38.017Z,0.20
2023-01-13T06:11:06.037Z,0.10
2023-01-13T06:13:32.636Z,0.15
2023-01-13T06:15:59.402Z,0.20
2023-01-13T06:18:26.823Z,0.10
2023-01-13T06:20:53.451Z,0.10
2023-01-13T06:23:20.271Z,0.20
2023-01-13T06:25:50.797Z,0.20
2023-01-13T06:28:17.546Z,0.10
2023-01-13T06:30:55.545Z,0.10
2023-01-13T06:33:29.237Z,0.10
2023-01-13T06:36:00.121Z,0.20
2023-01-13T06:38:30.104Z,0.20
2023-01-13T06:40:56.810Z,0.10
2023-01-13T06:43:23.432Z,0.25
2023-01-13T06:45:49.939Z,0.20
2023-01-13T06:48:18.232Z,0.20
2023-01-13T06:50:45.164Z,0.10
2023-01-13T06:53:12.225Z,0.20
2023-01-13T06:55:38.827Z,0.20
2023-01-13T06:58:05.678Z,0.10
2023-01-13T07:00:33.075Z,0.20
2023-01-13T07:03:09.790Z,0.10
2023-01-13T07:05:36.771Z,0.10
2023-01-13T07:08:03.903Z,0.20
2023-01-13T07:10:31.568Z,0.10
2023-01-13T07:13:19.789Z,0.10
2023-01-13T07:16:03.563Z,0.30
2023-01-13T07:18:31.899Z,0.20
2023-01-13T07:21:04.426Z,0.20
2023-01-13T07:23:34.100Z,0.20
2023-01-13T07:26:01.173Z,0.60
2023-01-13T07:28:29.869Z,0.25
2023-01-13T07:30:57.448Z,0.10
2023-01-13T07:33:24.426Z,0.10
2023-01-13T07:35:59.131Z,0.20
2023-01-13T07:38:26.005Z,0.20
2023-01-13T07:40:52.647Z,0.28
2023-01-13T07:43:34.332Z,0.30
2023-01-13T07:46:04.514Z,0.30
2023-01-13T07:48:33.325Z,0.10
2023-01-13T07:51:04.908Z,0.28
2023-01-13T07:53:32.238Z,0.20
2023-01-13T07:55:59.911Z,0.20
2023-01-13T07:58:27.527Z,0.22
2023-01-13T08:00:55.537Z,1.17
2023-01-13T08:03:23.595Z,0.20
2023-01-13T08:05:50.592Z,0.28
2023-01-13T08:08:17.288Z,0.30
2023-01-13T08:10:44.991Z,0.20
2023-01-13T08:13:18.196Z,0.20
2023-01-13T08:15:58.562Z,0.10
2023-01-13T08:18:25.422Z,0.20
2023-01-13T08:20:52.808Z,0.35
2023-01-13T08:23:20.717Z,0.30
2023-01-13T08:25:48.466Z,0.40
2023-01-13T08:28:16.467Z,0.30
2023-01-13T08:30:43.199Z,0.20
2023-01-13T08:33:11.629Z,0.20
2023-01-13T08:35:39.677Z,0.30
2023-01-13T08:38:07.030Z,0.40
2023-01-13T08:40:33.912Z,0.40
2023-01-13T08:43:00.848Z,0.13
2023-01-13T08:45:27.454Z,0.10
2023-01-13T08:47:54.097Z,0.20
2023-01-13T08:50:20.850Z,0.10
2023-01-13T08:52:47.430Z,0.13
2023-01-13T08:55:13.976Z,0.10
2023-01-13T08:57:40.666Z,0.10
2023-01-13T09:00:08.349Z,0.20
2023-01-13T09:02:34.950Z,0.20
2023-01-13T09:05:03.867Z,0.10
2023-01-13T09:07:31.511Z,0.10
2023-01-13T09:09:58.293Z,0.10
2023-01-13T09:12:43.587Z,0.15
2023-01-13T09:15:10.953Z,0.10
2023-01-13T09:17:37.520Z,0.10
2023-01-13T09:20:05.136Z,0.10
2023-01-13T09:22:31.781Z,0.20
2023-01-13T09:24:58.358Z,0.20
2023-01-13T09:27:25.034Z,0.25
2023-01-13T09:29:51.583Z,0.10
2023-01-13T09:32:18.232Z,0.10
2023-01-13T09:35:00.046Z,0.20
2023-01-13T09:37:38.138Z,0.10
2023-01-13T09:40:14.659Z,0.20
2023-01-13T09:43:11.388Z,0.20
2023-01-13T09:45:59.849Z,0.10
2023-01-13T09:48:51.877Z,0.30
2023-01-13T09:51:41.646Z,0.20
2023-01-13T09:54:16.506Z,0.10
2023-01-13T09:56:43.624Z,0.10
2023-01-13T09:59:12.258Z,0.10
2023-01-13T10:01:53.664Z,0.17
2023-01-13T10:04:20.595Z,0.30
2023-01-13T10:06:56.281Z,0.10
2023-01-13T10:09:33.896Z,0.08
2023-01-13T10:12:21.352Z,0.20
2023-01-13T10:14:55.102Z,0.30
2023-01-13T10:17:39.944Z,0.17
2023-01-13T10:20:22.565Z,0.10
2023-01-13T10:23:21.603Z,0.32
2023-01-13T10:26:17.914Z,0.40
2023-01-13T10:28:51.838Z,0.60
2023-01-13T10:31:20.337Z,0.30
2023-01-13T10:33:47.106Z,0.22
2023-01-13T10:36:16.432Z,0.10
2023-01-13T10:38:46.786Z,0.20
2023-01-13T10:41:16.222Z,0.20
2023-01-13T10:43:44.497Z,0.10
2023-01-13T10:46:16.271Z,0.17
2023-01-13T10:48:53.270Z,0.30
2023-01-13T10:51:30.260Z,0.35
2023-01-13T10:53:59.209Z,0.20
2023-01-13T10:56:34.157Z,0.10
2023-01-13T10:59:23.480Z,0.20
2023-01-13T11:02:04.038Z,0.00
2023-01-13T11:04:40.641Z,0.10
2023-01-13T11:07:35.328Z,0.10
2023-01-13T11:10:23.710Z,0.10
2023-01-13T11:13:18.065Z,0.10
2023-01-13T11:15:59.054Z,0.10
2023-01-13T11:18:31.113Z,0.20
2023-01-13T11:21:00.311Z,0.10
2023-01-13T11:23:42.742Z,0.10
2023-01-13T11:26:16.321Z,0.10
2023-01-13T11:28:45.738Z,0.10
2023-01-13T11:31:17.124Z,0.20
2023-01-13T11:33:59.979Z,0.30
2023-01-13T11:36:38.538Z,0.10
2023-01-13T11:39:30.045Z,0.10
2023-01-13T11:42:20.915Z,0.20
2023-01-13T11:45:19.712Z,0.25
2023-01-13T11:47:49.144Z,0.00
2023-01-13T11:50:34.598Z,0.10
2023-01-13T11:53:18.579Z,0.08
2023-01-13T11:56:32.831Z,0.20
2023-01-13T11:59:18.501Z,0.38
2023-01-13T12:02:03.580Z,0.10
2023-01-13T12:04:40.518Z,0.20
2023-01-13T12:07:35.868Z,0.20
2023-01-13T12:10:13.266Z,0.20
2023-01-13T12:13:09.169Z,0.30
2023-01-13T12:16:01.648Z,0.30
2023-01-13T12:18:34.803Z,0.20
2023-01-13T12:21:14.505Z,0.20
2023-01-13T12:23:58.196Z,0.10
2023-01-13T12:26:24.870Z,0.20
2023-01-13T12:28:51.433Z,0.25
2023-01-13T12:31:20.690Z,0.20
2023-01-13T12:34:13.489Z,0.10
2023-01-13T12:37:04.236Z,0.10
2023-01-13T12:39:50.879Z,0.20
2023-01-13T12:42:42.053Z,0.22
2023-01-13T12:45:11.249Z,0.20
2023-01-13T12:47:49.069Z,0.20
2023-01-13T12:50:21.702Z,0.10
2023-01-13T12:52:59.515Z,0.40
2023-01-13T12:55:27.270Z,0.20
2023-01-13T12:58:15.893Z,0.13
2023-01-13T13:00:43.957Z,0.30
2023-01-13T13:03:18.581Z,0.20
2023-01-13T13:05:55.252Z,0.17
2023-01-13T13:08:36.947Z,0.30
2023-01-13T13:11:06.510Z,0.40
2023-01-13T13:13:45.181Z,0.32
2023-01-13T13:16:27.286Z,0.10
2023-01-13T13:19:22.591Z,0.20
2023-01-13T13:22:07.371Z,0.20
2023-01-13T13:24:34.087Z,0.10
2023-01-13T13:27:18.169Z,0.10
2023-01-13T13:29:58.901Z,0.10
2023-01-13T13:32:25.429Z,0.10
2023-01-13T13:35:07.159Z,0.10
2023-01-13T13:40:50.114Z,0.13
2023-01-13T13:43:35.931Z,0.10
2023-01-13T13:46:21.402Z,0.10
2023-01-13T13:48:54.211Z,0.20
2023-01-13T13:51:31.019Z,0.10
2023-01-13T13:53:59.416Z,0.10
2023-01-13T13:56:28.109Z,0.10
2023-01-13T13:58:55.221Z,0.20
2023-01-13T14:01:23.561Z,0.10
2023-01-13T14:04:35.569Z,0.10
2023-01-13T14:07:18.552Z,0.15
2023-01-13T14:09:56.458Z,0.30
2023-01-13T14:12:25.997Z,0.20
2023-01-13T14:14:55.904Z,0.20
2023-01-13T14:17:24.383Z,0.10
2023-01-13T14:19:53.732Z,0.10
2023-01-13T14:22:22.921Z,0.10
2023-01-13T14:24:55.427Z,0.10
2023-01-13T14:27:24.023Z,0.20
2023-01-13T14:29:56.503Z,0.10
2023-01-13T14:32:34.633Z,0.17
2023-01-13T14:35:01.421Z,0.10
2023-01-13T14:37:27.939Z,0.57
2023-01-13T14:39:54.725Z,0.20
2023-01-13T14:42:22.176Z,0.10
2023-01-13T14:44:51.288Z,0.20
2023-01-13T14:47:26.767Z,0.20
2023-01-13T14:50:05.941Z,0.20
2023-01-13T14:52:46.283Z,0.20
2023-01-13T14:55:32.752Z,0.20
2023-01-13T14:58:30.745Z,0.20
2023-01-13T15:01:26.652Z,0.17
2023-01-13T15:03:53.320Z,0.30
2023-01-13T15:06:25.067Z,0.20
2023-01-13T15:11:28.028Z,0.30
2023-01-13T15:14:01.440Z,0.50
2023-01-13T15:16:29.799Z,0.30
2023-01-13T15:18:57.770Z,0.30
2023-01-13T15:21:25.045Z,0.30
2023-01-13T15:23:51.655Z,0.30
2023-01-13T15:26:25.560Z,0.50
2023-01-13T15:28:53.656Z,0.20
2023-01-13T15:31:20.691Z,0.20
2023-01-13T15:33:48.849Z,0.38
2023-01-13T15:36:31.005Z,0.40
2023-01-13T15:38:59.449Z,0.75
2023-01-13T15:41:45.177Z,0.77
2023-01-13T15:44:32.357Z,0.60
2023-01-13T15:47:02.512Z,0.90
2023-01-13T15:49:43.543Z,0.50
2023-01-13T15:52:24.635Z,0.70
2023-01-13T15:54:52.506Z,0.65
2023-01-13T15:57:31.767Z,1.42
2023-01-13T16:00:01.420Z,2.00
2023-01-13T16:02:33.288Z,0.93
2023-01-13T16:04:59.843Z,1.67
2023-01-13T16:07:26.517Z,1.08
2023-01-13T16:09:53.112Z,0.80
2023-01-13T16:12:19.806Z,0.40
2023-01-13T16:14:46.420Z,0.40
2023-01-13T16:17:18.887Z,0.30
2023-01-13T16:19:47.597Z,0.40
2023-01-13T16:22:15.879Z,0.70
2023-01-13T16:24:43.084Z,0.50
2023-01-13T16:27:15.230Z,0.68
2023-01-13T16:29:42.820Z,0.40
2023-01-13T16:32:09.483Z,0.77
2023-01-13T16:34:36.220Z,0.40
2023-01-13T16:37:03.247Z,0.57
2023-01-13T16:39:30.952Z,0.43
2023-01-13T16:41:57.587Z,0.60
2023-01-13T16:44:24.261Z,0.30
2023-01-13T16:46:50.936Z,0.63
2023-01-13T16:49:18.265Z,0.80
2023-01-13T16:51:44.862Z,0.38
2023-01-13T16:54:12.178Z,0.68
2023-01-13T16:56:38.793Z,0.40
2023-01-13T16:59:13.543Z,0.32
2023-01-13T17:01:42.905Z,0.52
2023-01-13T17:04:21.217Z,0.55
2023-01-13T17:06:54.248Z,0.70
2023-01-13T17:09:24.005Z,0.40
2023-01-13T17:11:51.103Z,0.40
2023-01-13T17:14:19.851Z,0.30
2023-01-13T17:16:46.975Z,0.22
2023-01-13T17:19:13.821Z,0.30
2023-01-13T17:21:40.845Z,0.50
2023-01-13T17:24:09.490Z,0.30
2023-01-13T17:26:47.188Z,0.47
2023-01-13T17:29:19.338Z,1.10
2023-01-13T17:31:45.995Z,0.40
2023-01-13T17:34:13.349Z,0.30
2023-01-13T17:36:40.793Z,0.60
2023-01-13T17:39:07.461Z,0.40
2023-01-13T17:41:34.028Z,0.40
2023-01-13T17:44:00.745Z,0.30
2023-01-13T17:46:27.410Z,0.30
2023-01-13T17:48:54.611Z,0.40
2023-01-13T17:51:22.774Z,0.30
2023-01-13T17:53:49.509Z,0.40
2023-01-13T17:56:17.037Z,0.20
2023-01-13T17:58:45.391Z,0.30
2023-01-13T18:01:18.035Z,0.73
2023-01-13T18:03:45.155Z,0.20
2023-01-13T18:06:20.229Z,0.30
2023-01-13T18:08:47.707Z,0.30
2023-01-13T18:11:18.702Z,0.20
2023-01-13T18:13:49.470Z,0.50
2023-01-13T18:16:18.595Z,0.30
2023-01-13T18:18:47.861Z,0.25
2023-01-13T18:21:44.044Z,0.68
2023-01-13T18:24:34.940Z,0.43
2023-01-13T18:27:23.789Z,0.50
2023-01-13T18:29:52.960Z,0.40
2023-01-13T18:32:20.835Z,0.40
2023-01-13T18:34:48.018Z,0.20
2023-01-13T18:37:16.781Z,0.32
2023-01-13T18:39:43.419Z,0.40
2023-01-13T18:42:43.303Z,0.30
2023-01-13T18:45:10.719Z,0.20
2023-01-13T18:47:39.144Z,0.32
2023-01-13T18:50:06.289Z,0.40
2023-01-13T18:52:32.854Z,0.30
2023-01-13T18:54:59.410Z,0.40
2023-01-13T18:57:25.977Z,0.38
2023-01-13T18:59:52.571Z,0.20
2023-01-13T19:02:20.820Z,0.20
2023-01-13T19:04:47.681Z,0.40
2023-01-13T19:07:22.264Z,0.40
2023-01-13T19:09:50.041Z,0.82
2023-01-13T19:12:25.697Z,0.85
2023-01-13T19:14:54.363Z,0.20
2023-01-13T19:17:22.022Z,0.30
2023-01-13T19:19:53.940Z,0.70
2023-01-13T19:22:27.116Z,0.40
2023-01-13T19:24:54.065Z,0.40
2023-01-13T19:27:21.928Z,0.45
2023-01-13T19:29:52.487Z,0.20
2023-01-13T19:32:22.626Z,0.25
2023-01-13T19:34:51.139Z,0.40
2023-01-13T19:37:34.037Z,0.50
2023-01-13T19:40:14.326Z,0.28
2023-01-13T19:43:01.748Z,0.52
2023-01-13T19:45:30.440Z,0.30
2023-01-13T19:47:59.147Z,0.35
2023-01-13T19:50:25.814Z,0.50
2023-01-13T19:52:52.385Z,0.45
2023-01-13T19:55:19.787Z,0.30
2023-01-13T19:57:46.683Z,0.30
2023-01-13T20:00:17.034Z,0.30
2023-01-13T20:02:49.077Z,0.30
2023-01-13T20:05:25.597Z,0.40
2023-01-13T20:07:52.462Z,0.30
2023-01-13T20:10:20.902Z,0.30
2023-01-13T20:12:47.788Z,0.20
2023-01-13T20:15:14.541Z,0.40
2023-01-13T20:17:41.667Z,0.30
2023-01-13T20:20:11.828Z,0.20
2023-01-13T20:22:39.307Z,0.50
2023-01-13T20:25:06.726Z,0.30
2023-01-13T20:27:33.464Z,0.30
2023-01-13T20:30:00.204Z,0.30
2023-01-13T20:32:26.917Z,0.20
2023-01-13T20:34:53.491Z,0.40
2023-01-13T20:37:20.067Z,0.70
2023-01-13T20:39:47.191Z,0.57
2023-01-13T20:42:29.253Z,0.35
2023-01-13T20:44:56.975Z,0.40
2023-01-13T20:47:23.619Z,0.30
2023-01-13T20:49:50.164Z,0.20
2023-01-13T20:52:16.864Z,0.20
2023-01-13T20:54:43.485Z,0.40
2023-01-13T20:57:11.416Z,0.20
2023-01-13T20:59:38.683Z,0.40
2023-01-13T21:02:10.337Z,0.28
2023-01-13T21:04:36.938Z,0.35
2023-01-13T21:07:03.715Z,0.20
2023-01-13T21:09:30.803Z,0.20
2023-01-13T21:12:16.152Z,0.15
2023-01-13T21:15:01.505Z,0.20
2023-01-13T21:17:46.618Z,0.20
2023-01-13T21:20:14.705Z,0.20
2023-01-13T21:22:46.830Z,0.30
2023-01-13T21:25:14.422Z,0.30
2023-01-13T21:27:41.710Z,0.30
2023-01-13T21:30:08.929Z,0.28
2023-01-13T21:32:35.494Z,0.40
2023-01-13T21:35:02.137Z,0.30
2023-01-13T21:37:28.713Z,0.30
2023-01-13T21:39:56.910Z,0.20
2023-01-13T21:42:46.307Z,0.25
2023-01-13T21:45:31.288Z,0.40
2023-01-13T21:47:57.944Z,0.30
2023-01-13T21:50:27.918Z,0.25
2023-01-13T21:52:55.466Z,0.30
2023-01-13T21:55:25.338Z,0.30
2023-01-13T21:58:21.097Z,0.35
2023-01-13T22:00:49.500Z,0.30
2023-01-13T22:03:18.331Z,0.20
2023-01-13T22:05:46.075Z,0.20
2023-01-13T22:08:13.704Z,0.20
2023-01-13T22:10:57.809Z,0.30
2023-01-13T22:14:00.145Z,0.60
2023-01-13T22:16:27.000Z,0.20
2023-01-13T22:18:53.619Z,0.25
2023-01-13T22:21:20.600Z,0.90
2023-01-13T22:23:47.288Z,0.40
2023-01-13T22:26:13.887Z,0.38
2023-01-13T22:28:42.662Z,0.38
2023-01-13T22:31:11.053Z,0.32
2023-01-13T22:33:38.192Z,0.30
2023-01-13T22:36:05.818Z,0.45
2023-01-13T22:38:34.763Z,0.40
2023-01-13T22:41:03.715Z,0.30
2023-01-13T22:43:31.076Z,0.35
2023-01-13T22:45:57.686Z,0.52
2023-01-13T22:48:24.373Z,0.30
2023-01-13T22:50:50.982Z,0.40
2023-01-13T22:53:17.728Z,0.20
2023-01-13T22:55:44.595Z,0.40
2023-01-13T22:58:11.158Z,0.30
2023-01-13T23:00:37.791Z,0.35
2023-01-13T23:03:05.224Z,0.70
2023-01-13T23:05:31.789Z,0.40
2023-01-13T23:07:58.348Z,0.60
2023-01-13T23:10:24.973Z,0.25
2023-01-13T23:12:53.108Z,0.40
2023-01-13T23:15:20.407Z,0.30
2023-01-13T23:17:50.935Z,0.40
2023-01-13T23:20:17.807Z,0.50
2023-01-13T23:22:44.476Z,0.45
2023-01-13T23:25:11.422Z,0.40
2023-01-13T23:27:38.041Z,0.63
2023-01-13T23:30:07.443Z,0.45
2023-01-13T23:32:35.054Z,0.30
2023-01-13T23:35:02.122Z,0.30
2023-01-13T23:37:28.698Z,0.30
2023-01-13T23:39:55.254Z,0.47
2023-01-13T23:42:21.834Z,0.30
2023-01-13T23:44:48.404Z,0.28
2023-01-13T23:47:14.972Z,0.60
2023-01-13T23:49:41.667Z,0.50
2023-01-13T23:52:08.519Z,0.30
2023-01-13T23:54:35.253Z,0.55
2023-01-13T23:57:01.851Z,0.68
2023-01-13T23:59:28.428Z,0.40
